Decoded Metar for CYRV (REVELSTOKE AIRPO in BC, CANADA) (IATA:YRV) | Meteo·Mobile Aviation Weather
aviador You're here:

CYRV Decoded Metar

REVELSTOKE AIRPO in BC, CANADA
Report Time2018-09-22 19:00:00
UTC Time2018-09-22 19:21:28
Flight Rules vfr VFR
Wind150° at 02 kt
W.Decomp.*RWY 12: 1.9 kt HW 0.5 kt RCW
W.Rank150° ranks 12
Current wind is below 150° avg. (6.7)
Visibility9656 m
Phenomena:Rain
Mist
Clouds:Overcast 070 Hf
Ceiling7,000 ft
Temp10°C (ISA -2)
Dew Point10°C (100% RH)
AAT9.3°C
QNH1012 hPa
Density Alt1,407 ft
Elevation1,453 ft
Report Wrong Elevation
Raw Report
CYRV 221900Z AUTO 15002KT 6SM RA BR OVC070 10/10 A2989 RMK
SLP130=

Extra information for CYRV:More info

Metar Taf Metar & Taf Last 4 Metars F.Rules Stats Wind Profile Meteogram Temp Stats Airport Information Weather charts Add Link Nearby VenuesMetar ALERT Operation Metar Decoded Social comments